Mount Vernon, IL (62864)

3:40 AM CDT on March 29, 2017 (GMT -0500)
Spring Garden Lane/Dodds Township | | Change Station

Elev 186 ft 38.26 °N, 88.87 °W | Updated 24 seconds ago

Scattered Clouds
Scattered Clouds
49.8 °F
Feels Like 49 °F
N
4.0
Wind Variable Wind from South

Today
High -- | Low -- °F
--% Chance of Precip.
Yesterday
High -- | Low -- °F
Precip. -- in
Pressure 30.08 in
Visibility 10.0 miles
Clouds Scattered Clouds 3100 ft
Windchill 49 °F
Dew Point 47 °F
Humidity 93%
Rainfall 0.00 in
Snow Depth Not available.
6:44 AM 7:16 PM
New Moon, 2% visible
METAR KMVN 290756Z AUTO 04010KT 10SM SCT031 09/08 A3008 RMK AO2 SLP186 T00940078
Pressure 30.08 in
Visibility 10.0 miles
Clouds Scattered Clouds 3100 ft
Windchill 49 °F
Dew Point 47 °F
Humidity 93%
Rainfall 0.00 in
Snow Depth Not available.
6:44 AM 7:16 PM
New Moon, 2% visible
METAR KMVN 290756Z AUTO 04010KT 10SM SCT031 09/08 A3008 RMK AO2 SLP186 T00940078

Get Severe Weather Alerts

Thanks for signing up!

Be on the lookout for a verification email in your inbox.

You'll start receiving the daily forecast at 8 AM.

×

10-Day Weather Forecast

Almanac

Astronomy

Mar. 29, 2017 Rise Set
Actual Time
Civil Twilight
Nautical Twilight
Astronomical Twilight
Moon
Length of Visible Light
Length of Day
Tomorrow will be .
, % of the Moon is Illuminated

Today's Extremes

State Highs State Lows

Community

WunderPhotos

Upload Photos

1,962,540 photos uploaded!

WunderBlog® & News

Nearby

Air Quality

  Air Quality AQ Index Pollutant
Not available.

Snow Depth

Station Depth Elevation

Earthquake Activity

City Distance Mag. Time & Date
Minimum magnitude displayed is 2.5.

Earthquake Activity

City Distance Mag. Time & Date
Minimum magnitude displayed is 2.5.

Coastal Water Temperatures

Place Temperature

Stations

Nearby Weather Stations

Station Location Temp. Windchill Dew Point Humidity Wind Precip. Elev Updated Type
                   

Watches & Warnings

There are currently no watches in effect.